Time;durP1;ratioP1;P1;durP2;ratioP2;P2;SDS_P1;SDS_P2;PMS_P1;PMS_P2;Temp;Humidity;BMP_temperature;BMP_pressure;BME280_temperature;BME280_humidity;BME280_pressure;Samples;Min_cycle;Max_cycle;Signal;HPM_P1;HPM_P2
2022/10/22 00:01:20;0.00;0.00;0.62;0.00;0.00;0.62;2.30;1.60;;;27.50;28.80;;;;;;2264977;61;20380;-71
2022/10/22 00:04:06;0.00;0.00;0.62;0.00;0.00;0.62;2.40;1.80;;;27.50;28.80;;;;;;2265587;61;20369;-72
2022/10/22 00:06:50;0.00;0.00;0.62;0.00;0.00;0.62;2.80;2.00;;;27.50;28.80;;;;;;2266108;61;20396;-70
2022/10/22 00:09:35;0.00;0.00;0.62;0.00;0.00;0.62;1.73;1.30;;;27.50;28.80;;;;;;2264882;61;20365;-71
2022/10/22 00:12:21;0.00;0.00;0.62;0.00;0.00;0.62;2.30;1.50;;;27.50;28.80;;;;;;2265809;61;20702;-71
2022/10/22 00:15:07;0.00;0.00;0.62;0.00;0.00;0.62;2.60;1.43;;;27.50;28.80;;;;;;2265682;61;20380;-70
2022/10/22 00:17:52;0.00;0.00;0.62;0.00;0.00;0.62;2.23;1.57;;;27.50;28.80;;;;;;2265243;61;20604;-71
2022/10/22 00:20:37;0.00;0.00;0.62;0.00;0.00;0.62;2.90;1.80;;;27.40;28.80;;;;;;2266016;61;20393;-71
2022/10/22 00:23:21;0.00;0.00;0.62;0.00;0.00;0.62;2.60;1.80;;;27.40;28.80;;;;;;2264731;61;20767;-72
2022/10/22 00:26:06;0.00;0.00;0.62;0.00;0.00;0.62;2.17;1.70;;;27.40;28.80;;;;;;2265536;61;20776;-71
2022/10/22 00:28:52;0.00;0.00;0.62;0.00;0.00;0.62;2.33;1.70;;;27.40;28.80;;;;;;2265947;61;20441;-71
2022/10/22 00:31:37;0.00;0.00;0.62;0.00;0.00;0.62;2.67;2.23;;;27.40;28.80;;;;;;2264993;61;20369;-72
2022/10/22 00:34:23;0.00;0.00;0.62;0.00;0.00;0.62;2.03;1.77;;;27.40;28.80;;;;;;2265524;61;20389;-71
2022/10/22 00:37:08;0.00;0.00;0.62;0.00;0.00;0.62;2.27;1.63;;;27.40;28.80;;;;;;2265630;61;20341;-71
2022/10/22 00:39:52;0.00;0.00;0.62;0.00;0.00;0.62;2.73;2.20;;;27.40;28.90;;;;;;2265241;61;20361;-72
2022/10/22 00:42:37;0.00;0.00;0.62;0.00;0.00;0.62;2.10;1.40;;;27.40;28.90;;;;;;2265675;61;20360;-72
2022/10/22 00:45:25;0.00;0.00;0.62;0.00;0.00;0.62;2.60;2.10;;;27.40;28.90;;;;;;2264993;61;20417;-71
2022/10/22 00:48:13;0.00;0.00;0.62;0.00;0.00;0.62;2.20;1.80;;;27.30;28.90;;;;;;2265590;61;20697;-70
2022/10/22 00:51:03;0.00;0.00;0.62;0.00;0.00;0.62;2.37;2.00;;;27.30;29.00;;;;;;2265253;61;20438;-71
2022/10/22 00:53:52;0.00;0.00;0.62;0.00;0.00;0.62;2.87;1.80;;;27.30;29.00;;;;;;2264845;61;20353;-71
2022/10/22 00:56:37;0.00;0.00;0.62;0.00;0.00;0.62;2.27;1.50;;;27.30;29.00;;;;;;2265640;61;20376;-72
2022/10/22 00:59:22;0.00;0.00;0.62;0.00;0.00;0.62;3.20;2.60;;;27.30;29.00;;;;;;2265374;61;20698;-70
2022/10/22 01:02:08;0.00;0.00;0.62;0.00;0.00;0.62;2.40;1.60;;;27.30;29.00;;;;;;2265146;61;20745;-71
2022/10/22 01:04:53;0.00;0.00;0.62;0.00;0.00;0.62;5.80;1.90;;;27.30;29.00;;;;;;2265577;61;20489;-71
2022/10/22 01:07:43;0.00;0.00;0.62;0.00;0.00;0.62;2.07;1.77;;;27.20;28.90;;;;;;2264873;61;20364;-71
2022/10/22 01:10:50;0.00;0.00;0.62;0.00;0.00;0.62;3.87;2.07;;;27.20;28.90;;;;;;2265552;61;20357;-71
2022/10/22 01:13:47;0.00;0.00;0.62;0.00;0.00;0.62;8.70;1.83;;;27.20;29.00;;;;;;2265861;61;20365;-71
2022/10/22 01:16:39;0.00;0.00;0.62;0.00;0.00;0.62;2.50;1.90;;;27.20;29.00;;;;;;2264903;61;20601;-70
2022/10/22 01:19:42;0.00;0.00;0.62;0.00;0.00;0.62;2.47;1.90;;;27.20;29.00;;;;;;2265356;61;20407;-71
2022/10/22 01:22:33;0.00;0.00;0.62;0.00;0.00;0.62;2.67;2.17;;;27.20;29.00;;;;;;2264688;61;20364;-71
2022/10/22 01:25:29;0.00;0.00;0.62;0.00;0.00;0.62;2.43;1.97;;;27.20;29.10;;;;;;2265536;61;20373;-71
2022/10/22 01:28:22;0.00;0.00;0.62;0.00;0.00;0.62;2.60;2.00;;;27.20;29.10;;;;;;2265661;61;20392;-70
2022/10/22 01:31:10;0.00;0.00;0.62;0.00;0.00;0.62;2.90;1.93;;;27.10;29.00;;;;;;2264542;61;20424;-70
2022/10/22 01:33:58;0.00;0.00;0.62;0.00;0.00;0.62;2.07;1.67;;;27.10;29.00;;;;;;2265375;61;20365;-71
2022/10/22 01:36:44;0.00;0.00;0.62;0.00;0.00;0.62;3.00;2.40;;;27.10;29.10;;;;;;2265220;61;20381;-71
2022/10/22 01:39:30;0.00;0.00;0.62;0.00;0.00;0.62;2.10;1.90;;;27.10;29.10;;;;;;2265190;61;20725;-71
2022/10/22 01:42:15;0.00;0.00;0.62;0.00;0.00;0.62;2.87;1.70;;;27.00;29.10;;;;;;2265512;61;20499;-71
2022/10/22 01:45:00;0.00;0.00;0.62;0.00;0.00;0.62;2.13;1.67;;;27.00;29.10;;;;;;2264704;61;20768;-71
2022/10/22 01:47:59;0.00;0.00;0.62;0.00;0.00;0.62;2.10;1.60;;;27.00;29.20;;;;;;2265410;61;20360;-70
2022/10/22 01:51:00;0.00;0.00;0.62;0.00;0.00;0.62;2.57;1.80;;;27.00;29.20;;;;;;2265717;61;20361;-69
2022/10/22 01:53:52;0.00;0.00;0.62;0.00;0.00;0.62;2.03;1.60;;;27.00;29.20;;;;;;2264971;61;20384;-71
2022/10/22 01:56:53;0.00;0.00;0.62;0.00;0.00;0.62;2.47;1.67;;;27.00;29.30;;;;;;2265579;61;20372;-71
2022/10/22 01:59:49;0.00;0.00;0.62;0.00;0.00;0.62;1.90;1.47;;;27.00;29.30;;;;;;2264714;61;20361;-69
2022/10/22 02:02:42;0.00;0.00;0.62;0.00;0.00;0.62;2.20;1.70;;;27.00;29.30;;;;;;2265094;61;20428;-71
2022/10/22 02:05:35;0.00;0.00;0.62;0.00;0.00;0.62;1.83;1.50;;;27.00;29.30;;;;;;2265690;61;20393;-72
2022/10/22 02:08:24;0.00;0.00;0.62;0.00;0.00;0.62;1.83;1.33;;;26.90;29.80;;;;;;2264574;61;20734;-72
2022/10/22 02:11:12;0.00;0.00;0.62;0.00;0.00;0.62;3.33;1.80;;;27.00;29.30;;;;;;2265547;61;20361;-71
2022/10/22 02:14:02;0.00;0.00;0.62;0.00;0.00;0.62;2.50;1.80;;;26.90;29.30;;;;;;2265183;61;20384;-69
2022/10/22 02:16:49;0.00;0.00;0.62;0.00;0.00;0.62;2.13;1.50;;;26.90;29.30;;;;;;2264974;61;20420;-73
2022/10/22 02:19:40;0.00;0.00;0.62;0.00;0.00;0.62;2.20;1.50;;;26.90;29.30;;;;;;2265599;61;20357;-70
2022/10/22 02:22:29;0.00;0.00;0.62;0.00;0.00;0.62;2.37;1.90;;;26.90;29.30;;;;;;2264626;61;20349;-71
2022/10/22 02:25:16;0.00;0.00;0.62;0.00;0.00;0.62;2.20;1.70;;;26.90;29.30;;;;;;2265303;61;20381;-72
2022/10/22 02:28:10;0.00;0.00;0.62;0.00;0.00;0.62;2.17;1.50;;;26.90;29.30;;;;;;2265532;61;20404;-71
2022/10/22 02:31:02;0.00;0.00;0.62;0.00;0.00;0.62;1.90;1.63;;;26.90;29.30;;;;;;2265654;61;20419;-70
2022/10/22 02:33:50;0.00;0.00;0.62;0.00;0.00;0.62;2.10;1.50;;;26.90;29.40;;;;;;2266262;61;20353;-71
2022/10/22 02:36:37;0.00;0.00;0.62;0.00;0.00;0.62;1.90;1.40;;;26.90;29.40;;;;;;2265326;61;20484;-70
2022/10/22 02:39:25;0.00;0.00;0.62;0.00;0.00;0.62;2.10;1.60;;;26.90;29.40;;;;;;2265942;61;20702;-70
2022/10/22 02:42:11;0.00;0.00;0.62;0.00;0.00;0.62;2.30;1.60;;;26.90;29.40;;;;;;2266179;61;20364;-71
2022/10/22 02:44:56;0.00;0.00;0.62;0.00;0.00;0.62;2.17;1.80;;;26.90;29.40;;;;;;2265318;61;20385;-71
2022/10/22 02:47:41;0.00;0.00;0.62;0.00;0.00;0.62;2.77;1.90;;;26.80;29.30;;;;;;2266011;61;20396;-72
2022/10/22 02:50:25;0.00;0.00;0.62;0.00;0.00;0.62;2.00;1.40;;;26.80;29.30;;;;;;2265801;61;20377;-71
2022/10/22 02:53:10;0.00;0.00;0.62;0.00;0.00;0.62;2.37;1.53;;;26.80;29.30;;;;;;2265015;61;20365;-70
2022/10/22 02:55:56;0.00;0.00;0.62;0.00;0.00;0.62;2.77;1.60;;;26.80;29.30;;;;;;2266188;61;20733;-71
2022/10/22 02:58:41;0.00;0.00;0.62;0.00;0.00;0.62;2.77;1.90;;;26.80;29.40;;;;;;2265290;61;20381;-70
2022/10/22 03:01:25;0.00;0.00;0.62;0.00;0.00;0.62;2.87;1.90;;;26.80;29.40;;;;;;2265920;61;20630;-70
2022/10/22 03:04:10;0.00;0.00;0.62;0.00;0.00;0.62;2.70;1.87;;;26.80;29.40;;;;;;2266190;61;20361;-71
2022/10/22 03:06:55;0.00;0.00;0.62;0.00;0.00;0.62;2.00;1.37;;;26.80;29.50;;;;;;2265227;61;20443;-71
2022/10/22 03:09:40;0.00;0.00;0.62;0.00;0.00;0.62;2.00;1.30;;;26.80;29.50;;;;;;2266051;61;20427;-70
2022/10/22 03:12:26;0.00;0.00;0.62;0.00;0.00;0.62;2.17;1.80;;;26.70;29.50;;;;;;2265969;61;20369;-71
2022/10/22 03:15:11;0.00;0.00;0.62;0.00;0.00;0.62;2.50;1.50;;;26.70;29.50;;;;;;2265215;61;20389;-72
2022/10/22 03:17:56;0.00;0.00;0.62;0.00;0.00;0.62;2.47;1.80;;;26.70;29.50;;;;;;2266164;61;20387;-71
2022/10/22 03:20:40;0.00;0.00;0.62;0.00;0.00;0.62;2.40;1.53;;;26.70;29.50;;;;;;2265428;61;20360;-71
2022/10/22 03:23:25;0.00;0.00;0.62;0.00;0.00;0.62;1.87;1.40;;;26.70;29.60;;;;;;2265874;61;20365;-71
2022/10/22 03:26:12;0.00;0.00;0.62;0.00;0.00;0.62;2.60;1.80;;;26.70;29.60;;;;;;2266064;61;20387;-71
2022/10/22 03:28:59;0.00;0.00;0.62;0.00;0.00;0.62;1.90;1.50;;;26.70;29.70;;;;;;2264639;61;20357;-71
2022/10/22 03:31:44;0.00;0.00;0.62;0.00;0.00;0.62;1.60;1.30;;;26.70;30.20;;;;;;2265917;61;20667;-70
2022/10/22 03:34:28;0.00;0.00;0.62;0.00;0.00;0.62;1.90;1.53;;;26.70;30.10;;;;;;2265953;61;20356;-71
2022/10/22 03:37:13;0.00;0.00;0.62;0.00;0.00;0.62;2.73;1.60;;;26.70;29.70;;;;;;2265622;61;20426;-71
2022/10/22 03:39:58;0.00;0.00;0.62;0.00;0.00;0.62;2.00;1.30;;;26.70;29.70;;;;;;2265756;61;20381;-71
2022/10/22 03:42:43;0.00;0.00;0.62;0.00;0.00;0.62;2.03;1.30;;;26.60;29.70;;;;;;2265325;61;20572;-71
2022/10/22 03:45:29;0.00;0.00;0.62;0.00;0.00;0.62;2.43;1.67;;;26.60;29.70;;;;;;2265844;61;20415;-71
2022/10/22 03:48:14;0.00;0.00;0.62;0.00;0.00;0.62;2.57;1.70;;;26.70;29.70;;;;;;2265935;61;20373;-71
2022/10/22 03:50:58;0.00;0.00;0.62;0.00;0.00;0.62;2.40;1.77;;;26.60;29.70;;;;;;2265080;61;20403;-71
2022/10/22 03:53:43;0.00;0.00;0.62;0.00;0.00;0.62;1.87;1.37;;;26.60;29.70;;;;;;2265675;61;20349;-71
2022/10/22 03:56:28;0.00;0.00;0.62;0.00;0.00;0.62;2.23;1.50;;;26.60;29.70;;;;;;2265860;61;20428;-71
2022/10/22 03:59:13;0.00;0.00;0.62;0.00;0.00;0.62;2.10;1.63;;;26.60;29.70;;;;;;2265382;61;20368;-71
2022/10/22 04:02:00;0.00;0.00;0.62;0.00;0.00;0.62;2.20;1.60;;;26.60;29.70;;;;;;2265859;61;20706;-70
2022/10/22 04:04:44;0.00;0.00;0.62;0.00;0.00;0.62;2.00;1.47;;;26.60;29.70;;;;;;2265360;61;20360;-72
2022/10/22 04:07:29;0.00;0.00;0.62;0.00;0.00;0.62;2.40;1.50;;;26.60;29.70;;;;;;2265477;61;20419;-71
2022/10/22 04:10:14;0.00;0.00;0.62;0.00;0.00;0.62;2.40;1.60;;;26.60;29.70;;;;;;2265544;61;20349;-70
2022/10/22 04:12:59;0.00;0.00;0.62;0.00;0.00;0.62;1.97;1.50;;;26.60;30.20;;;;;;2264597;61;20380;-71
2022/10/22 04:15:43;0.00;0.00;0.62;0.00;0.00;0.62;2.23;1.40;;;26.50;29.70;;;;;;2265688;61;20377;-72
2022/10/22 04:18:29;0.00;0.00;0.62;0.00;0.00;0.62;1.90;1.33;;;26.50;29.70;;;;;;2265631;61;20400;-71
2022/10/22 04:21:16;0.00;0.00;0.62;0.00;0.00;0.62;1.80;1.60;;;26.50;29.70;;;;;;2264977;61;20717;-71
2022/10/22 04:24:01;0.00;0.00;0.62;0.00;0.00;0.62;1.67;1.30;;;26.50;29.70;;;;;;2265636;61;20596;-75
2022/10/22 04:26:46;0.00;0.00;0.62;0.00;0.00;0.62;1.73;1.43;;;26.50;29.70;;;;;;2265418;61;20420;-74
2022/10/22 04:29:30;0.00;0.00;0.62;0.00;0.00;0.62;2.53;1.63;;;26.50;29.70;;;;;;2265043;61;20371;-75
2022/10/22 04:32:15;0.00;0.00;0.62;0.00;0.00;0.62;2.07;1.43;;;26.50;29.70;;;;;;2265986;61;20353;-74
2022/10/22 04:35:01;0.00;0.00;0.62;0.00;0.00;0.62;4.27;1.60;;;26.50;29.80;;;;;;2264915;61;20373;-72
2022/10/22 04:37:46;0.00;0.00;0.62;0.00;0.00;0.62;2.17;1.47;;;26.50;29.80;;;;;;2265629;61;20451;-70
2022/10/22 04:40:30;0.00;0.00;0.62;0.00;0.00;0.62;2.50;1.90;;;26.50;29.80;;;;;;2265856;61;20565;-71
2022/10/22 04:43:15;0.00;0.00;0.62;0.00;0.00;0.62;2.53;1.30;;;26.50;29.80;;;;;;2264761;61;20405;-70
2022/10/22 04:46:00;0.00;0.00;0.62;0.00;0.00;0.62;2.00;1.43;;;26.50;29.70;;;;;;2265700;61;20381;-72
2022/10/22 04:48:46;0.00;0.00;0.62;0.00;0.00;0.62;2.60;1.90;;;26.40;29.70;;;;;;2265194;61;20360;-71
2022/10/22 04:51:32;0.00;0.00;0.62;0.00;0.00;0.62;2.33;1.83;;;26.40;29.70;;;;;;2265175;61;20377;-71
2022/10/22 04:54:16;0.00;0.00;0.62;0.00;0.00;0.62;2.13;1.43;;;26.40;29.70;;;;;;2265751;61;20702;-72
2022/10/22 04:57:01;0.00;0.00;0.62;0.00;0.00;0.62;1.70;1.33;;;26.40;29.80;;;;;;2264806;61;20579;-72
2022/10/22 04:59:45;0.00;0.00;0.62;0.00;0.00;0.62;3.33;1.93;;;26.40;29.80;;;;;;2265544;61;20365;-71
2022/10/22 05:02:30;0.00;0.00;0.62;0.00;0.00;0.62;1.90;1.37;;;26.40;29.80;;;;;;2265301;61;20344;-70
2022/10/22 05:05:15;0.00;0.00;0.62;0.00;0.00;0.62;2.17;1.70;;;26.30;29.70;;;;;;2263951;61;20385;-71
2022/10/22 05:08:01;0.00;0.00;0.62;0.00;0.00;0.62;2.10;1.50;;;26.30;29.80;;;;;;2265610;61;20393;-70
2022/10/22 05:10:46;0.00;0.00;0.62;0.00;0.00;0.62;2.67;1.67;;;26.30;29.80;;;;;;2265589;61;20404;-69
2022/10/22 05:13:30;0.00;0.00;0.62;0.00;0.00;0.62;3.13;1.53;;;26.30;29.80;;;;;;2264976;61;20460;-71
2022/10/22 05:16:15;0.00;0.00;0.62;0.00;0.00;0.62;2.13;1.63;;;26.30;29.90;;;;;;2265305;61;20592;-70
2022/10/22 05:19:01;0.00;0.00;0.62;0.00;0.00;0.62;2.20;1.70;;;26.30;29.80;;;;;;2265255;61;20396;-70
2022/10/22 05:21:46;0.00;0.00;0.62;0.00;0.00;0.62;1.97;1.60;;;26.30;29.90;;;;;;2265450;61;20392;-72
2022/10/22 05:24:35;0.00;0.00;0.62;0.00;0.00;0.62;1.70;1.20;;;26.30;29.90;;;;;;2265525;61;20579;-72
2022/10/22 05:27:20;0.00;0.00;0.62;0.00;0.00;0.62;3.67;1.70;;;26.30;29.80;;;;;;2264702;61;20393;-70
2022/10/22 05:30:06;0.00;0.00;0.62;0.00;0.00;0.62;2.00;1.57;;;26.30;29.90;;;;;;2265345;61;20485;-71
2022/10/22 05:32:51;0.00;0.00;0.62;0.00;0.00;0.62;2.03;1.53;;;26.30;29.90;;;;;;2265143;61;20396;-71
2022/10/22 05:35:36;0.00;0.00;0.62;0.00;0.00;0.62;2.07;1.30;;;26.30;29.80;;;;;;2265232;61;20729;-71
2022/10/22 05:38:22;0.00;0.00;0.62;0.00;0.00;0.62;3.10;1.80;;;26.30;29.80;;;;;;2265442;61;20365;-70
2022/10/22 05:41:10;0.00;0.00;0.62;0.00;0.00;0.62;3.00;1.53;;;26.30;29.80;;;;;;2265173;61;20408;-71
2022/10/22 05:43:56;0.00;0.00;0.62;0.00;0.00;0.62;2.00;1.43;;;26.30;29.90;;;;;;2265400;61;20368;-70
2022/10/22 05:46:42;0.00;0.00;0.62;0.00;0.00;0.62;2.20;1.50;;;26.30;29.90;;;;;;2265593;61;20388;-70
2022/10/22 05:49:27;0.00;0.00;0.62;0.00;0.00;0.62;3.00;1.47;;;26.30;29.90;;;;;;2264797;61;20369;-72
2022/10/22 05:52:12;0.00;0.00;0.62;0.00;0.00;0.62;2.50;1.80;;;26.30;29.90;;;;;;2265328;61;20364;-70
2022/10/22 05:54:56;0.00;0.00;0.62;0.00;0.00;0.62;2.00;1.50;;;26.30;29.90;;;;;;2265612;61;20646;-71
2022/10/22 05:57:42;0.00;0.00;0.62;0.00;0.00;0.62;2.00;1.53;;;26.30;29.90;;;;;;2265073;61;20353;-71
2022/10/22 06:00:27;0.00;0.00;0.62;0.00;0.00;0.62;1.77;1.30;;;26.30;29.90;;;;;;2265216;61;20381;-71
2022/10/22 06:03:11;0.00;0.00;0.62;0.00;0.00;0.62;2.43;1.50;;;26.30;30.40;;;;;;2264697;61;20369;-70
2022/10/22 06:05:58;0.00;0.00;0.62;0.00;0.00;0.62;1.70;1.40;;;26.30;29.90;;;;;;2265369;61;20388;-73
2022/10/22 06:08:44;0.00;0.00;0.62;0.00;0.00;0.62;3.10;1.50;;;26.30;29.90;;;;;;2266147;61;20356;-69
2022/10/22 06:11:29;0.00;0.00;0.62;0.00;0.00;0.62;1.80;1.30;;;26.30;29.90;;;;;;2265810;61;20869;-69
2022/10/22 06:14:17;0.00;0.00;0.62;0.00;0.00;0.62;2.03;1.50;;;26.30;29.90;;;;;;2265483;61;20368;-72
2022/10/22 06:17:01;0.00;0.00;0.62;0.00;0.00;0.62;1.80;1.23;;;26.20;29.90;;;;;;2266098;61;20361;-72
2022/10/22 06:19:46;0.00;0.00;0.62;0.00;0.00;0.62;2.97;2.00;;;26.20;29.90;;;;;;2265793;61;20433;-69
2022/10/22 06:22:30;0.00;0.00;0.62;0.00;0.00;0.62;3.90;2.20;;;26.20;30.00;;;;;;2265972;61;20360;-73
2022/10/22 06:25:15;0.00;0.00;0.62;0.00;0.00;0.62;2.20;1.67;;;26.20;30.00;;;;;;2266057;61;20387;-72
2022/10/22 06:28:00;0.00;0.00;0.62;0.00;0.00;0.62;1.90;1.50;;;26.20;30.00;;;;;;2265882;61;20745;-71
2022/10/22 06:30:46;0.00;0.00;0.62;0.00;0.00;0.62;2.60;1.80;;;26.20;30.00;;;;;;2266223;61;20590;-70
2022/10/22 06:33:33;0.00;0.00;0.62;0.00;0.00;0.62;2.83;1.40;;;26.10;30.00;;;;;;2265445;61;20821;-70
2022/10/22 06:36:21;0.00;0.00;0.62;0.00;0.00;0.62;1.80;1.40;;;26.10;30.00;;;;;;2266200;61;20424;-68
2022/10/22 06:39:06;0.00;0.00;0.62;0.00;0.00;0.62;2.07;1.60;;;26.10;30.70;;;;;;2266322;61;20405;-70
2022/10/22 06:41:50;0.00;0.00;0.62;0.00;0.00;0.62;2.43;1.80;;;26.10;30.00;;;;;;2265626;61;20702;-72
2022/10/22 06:44:35;0.00;0.00;0.62;0.00;0.00;0.62;2.20;1.43;;;26.10;30.10;;;;;;2265984;61;20388;-71
2022/10/22 06:47:21;0.00;0.00;0.62;0.00;0.00;0.62;3.27;2.10;;;26.10;30.10;;;;;;2265884;61;20385;-72
2022/10/22 06:50:07;0.00;0.00;0.62;0.00;0.00;0.62;3.57;2.33;;;26.00;30.10;;;;;;2265316;61;20436;-70
2022/10/22 06:52:52;0.00;0.00;0.62;0.00;0.00;0.62;2.00;1.50;;;26.00;30.20;;;;;;2266126;61;20400;-70
2022/10/22 06:55:37;0.00;0.00;0.62;0.00;0.00;0.62;2.63;1.77;;;26.00;30.10;;;;;;2265432;61;20385;-65
2022/10/22 06:58:23;0.00;0.00;0.62;0.00;0.00;0.62;2.77;1.80;;;26.00;30.10;;;;;;2266058;61;20365;-66
2022/10/22 07:01:10;0.00;0.00;0.62;0.00;0.00;0.62;3.07;2.30;;;26.00;30.10;;;;;;2266232;61;20618;-68
2022/10/22 07:03:56;0.00;0.00;0.62;0.00;0.00;0.62;3.10;2.00;;;26.00;30.20;;;;;;2265208;61;20403;-70
2022/10/22 07:06:42;0.00;0.00;0.62;0.00;0.00;0.62;2.20;1.90;;;26.00;30.30;;;;;;2266031;61;20392;-68
2022/10/22 07:09:26;0.00;0.00;0.62;0.00;0.00;0.62;3.03;2.17;;;26.00;30.40;;;;;;2265466;61;20395;-68
2022/10/22 07:12:12;0.00;0.00;0.62;0.00;0.00;0.62;2.70;2.10;;;25.90;30.30;;;;;;2264596;61;20435;-65
2022/10/22 07:14:57;0.00;0.00;0.62;0.00;0.00;0.62;3.00;2.00;;;25.90;30.40;;;;;;2265117;61;20364;-69
2022/10/22 07:17:42;0.00;0.00;0.62;0.00;0.00;0.62;2.23;1.87;;;25.90;30.60;;;;;;2613341;45;20578;-68
2022/10/22 07:20:29;0.00;0.00;0.62;0.00;0.00;0.62;2.60;1.93;;;25.90;30.50;;;;;;2263663;61;20603;-64
2022/10/22 07:23:13;0.00;0.00;0.62;0.00;0.00;0.62;2.80;1.73;;;26.00;30.60;;;;;;2265672;61;20443;-65
2022/10/22 07:25:58;0.00;0.00;0.62;0.00;0.00;0.62;2.63;2.10;;;26.00;30.60;;;;;;2265226;61;20388;-67
2022/10/22 07:28:43;0.00;0.00;0.62;0.00;0.00;0.62;3.80;1.93;;;26.00;30.50;;;;;;2266082;61;20388;-67
2022/10/22 07:31:28;0.00;0.00;0.62;0.00;0.00;0.62;1.87;1.57;;;26.00;30.50;;;;;;2263336;61;20428;-66
2022/10/22 07:34:14;0.00;0.00;0.62;0.00;0.00;0.62;4.13;1.70;;;26.00;30.70;;;;;;2468278;53;20345;-70
2022/10/22 07:37:00;0.00;0.00;0.62;0.00;0.00;0.62;2.97;1.80;;;26.00;30.70;;;;;;2265876;61;20348;-71
2022/10/22 07:39:45;0.00;0.00;0.62;0.00;0.00;0.62;2.10;1.73;;;26.00;30.70;;;;;;2262517;61;20361;-70
2022/10/22 07:42:30;0.00;0.00;0.62;0.00;0.00;0.62;2.27;1.47;;;26.00;30.70;;;;;;2261931;61;20385;-70
2022/10/22 07:45:15;0.00;0.00;0.62;0.00;0.00;0.62;2.70;1.93;;;26.00;31.30;;;;;;2261557;61;20409;-70
2022/10/22 07:48:00;0.00;0.00;0.62;0.00;0.00;0.62;2.00;1.80;;;26.00;30.70;;;;;;2265144;61;20439;-71
2022/10/22 07:50:45;0.00;0.00;0.62;0.00;0.00;0.62;2.30;2.00;;;26.00;30.70;;;;;;2266049;61;20411;-68
2022/10/22 07:53:31;0.00;0.00;0.62;0.00;0.00;0.62;4.20;2.33;;;26.00;30.70;;;;;;2265721;61;20461;-65
2022/10/22 07:56:16;0.00;0.00;0.62;0.00;0.00;0.62;4.40;2.40;;;26.00;30.70;;;;;;2265512;61;20373;-67
2022/10/22 07:59:01;0.00;0.00;0.62;0.00;0.00;0.62;2.87;2.27;;;26.00;30.70;;;;;;2265684;61;20365;-66
2022/10/22 08:01:46;0.00;0.00;0.62;0.00;0.00;0.62;3.83;2.30;;;26.00;30.70;;;;;;2265387;61;20371;-65
2022/10/22 08:04:30;0.00;0.00;0.62;0.00;0.00;0.62;3.50;2.20;;;26.00;30.80;;;;;;2264420;61;20362;-68
2022/10/22 08:07:15;0.00;0.00;0.62;0.00;0.00;0.62;4.50;2.47;;;26.00;30.80;;;;;;2261752;61;20385;-63
2022/10/22 08:10:01;0.00;0.00;0.62;0.00;0.00;0.62;2.77;2.07;;;26.00;30.90;;;;;;2261303;61;20361;-67
2022/10/22 08:12:46;0.00;0.00;0.62;0.00;0.00;0.62;2.47;1.90;;;26.00;30.90;;;;;;2261520;61;20711;-65
2022/10/22 08:15:31;0.00;0.00;0.62;0.00;0.00;0.62;3.00;1.80;;;26.00;30.80;;;;;;2261729;61;20583;-69
2022/10/22 08:18:16;0.00;0.00;0.62;0.00;0.00;0.62;2.03;1.77;;;26.00;30.80;;;;;;2261347;61;20422;-71
2022/10/22 08:21:00;0.00;0.00;0.62;0.00;0.00;0.62;2.40;1.90;;;26.00;30.90;;;;;;2283924;61;20371;-66
2022/10/22 08:23:45;0.00;0.00;0.62;0.00;0.00;0.62;3.70;2.27;;;26.00;30.80;;;;;;2269292;61;20578;-67
2022/10/22 08:26:31;0.00;0.00;0.62;0.00;0.00;0.62;6.70;2.33;;;26.10;31.00;;;;;;2269587;61;20411;-66
2022/10/22 08:29:16;0.00;0.00;0.62;0.00;0.00;0.62;2.47;1.90;;;26.10;31.10;;;;;;2270005;61;20364;-64
2022/10/22 08:32:01;0.00;0.00;0.62;0.00;0.00;0.62;3.10;2.23;;;26.10;31.10;;;;;;2269209;61;20356;-64
2022/10/22 08:34:46;0.00;0.00;0.62;0.00;0.00;0.62;3.40;1.80;;;26.10;31.00;;;;;;2265599;61;20652;-69
2022/10/22 08:37:31;0.00;0.00;0.62;0.00;0.00;0.62;2.20;1.80;;;26.20;31.20;;;;;;2265750;61;20377;-62
2022/10/22 08:40:25;0.00;0.00;0.62;0.00;0.00;0.62;2.00;1.57;;;26.20;31.10;;;;;;2265007;61;20369;-64
2022/10/22 08:43:57;0.00;0.00;0.62;0.00;0.00;0.62;1.70;1.30;;;26.20;31.00;;;;;;2265471;61;20369;-64
2022/10/22 08:46:58;0.00;0.00;0.62;0.00;0.00;0.62;5.83;2.23;;;26.20;30.90;;;;;;2260271;61;20393;-69
2022/10/22 08:49:43;0.00;0.00;0.62;0.00;0.00;0.62;2.57;1.83;;;26.30;30.90;;;;;;2265722;61;20585;-68
2022/10/22 08:52:31;0.00;0.00;0.62;0.00;0.00;0.62;2.10;1.50;;;26.30;30.90;;;;;;2265687;61;20353;-65
2022/10/22 08:55:24;0.00;0.00;0.62;0.00;0.00;0.62;2.03;1.60;;;26.30;30.90;;;;;;2265251;61;20650;-66
2022/10/22 08:58:19;0.00;0.00;0.62;0.00;0.00;0.62;2.87;1.60;;;26.30;31.00;;;;;;2265748;61;20585;-68
2022/10/22 09:01:12;0.00;0.00;0.62;0.00;0.00;0.62;2.07;1.53;;;26.40;31.00;;;;;;2265154;61;20407;-68
2022/10/22 09:04:01;0.00;0.00;0.62;0.00;0.00;0.62;2.67;1.70;;;26.40;31.00;;;;;;2265353;61;20476;-67
2022/10/22 09:06:46;0.00;0.00;0.62;0.00;0.00;0.62;2.10;1.60;;;26.50;31.00;;;;;;2265588;61;20413;-67
2022/10/22 09:09:37;0.00;0.00;0.62;0.00;0.00;0.62;2.83;1.93;;;26.50;31.00;;;;;;2264847;61;20353;-64
2022/10/22 09:12:25;0.00;0.00;0.62;0.00;0.00;0.62;2.43;2.00;;;26.50;31.00;;;;;;2265663;61;20373;-68
2022/10/22 09:15:13;0.00;0.00;0.62;0.00;0.00;0.62;2.27;1.47;;;26.60;31.10;;;;;;2502041;53;20372;-67
2022/10/22 09:18:13;0.00;0.00;0.62;0.00;0.00;0.62;1.83;1.30;;;26.60;31.10;;;;;;2265457;61;20365;-66
2022/10/22 09:21:09;0.00;0.00;0.62;0.00;0.00;0.62;2.70;1.80;;;26.60;31.10;;;;;;2265625;61;20369;-65
2022/10/22 09:24:08;0.00;0.00;0.62;0.00;0.00;0.62;2.87;1.73;;;26.60;31.10;;;;;;2264589;61;20366;-64
2022/10/22 09:26:55;0.00;0.00;0.62;0.00;0.00;0.62;2.50;2.00;;;26.70;31.20;;;;;;2265565;61;20769;-64
2022/10/22 09:29:42;0.00;0.00;0.62;0.00;0.00;0.62;3.23;1.70;;;26.70;31.20;;;;;;2265404;61;20372;-65
2022/10/22 09:32:27;0.00;0.00;0.62;0.00;0.00;0.62;2.20;1.50;;;26.70;31.20;;;;;;2265376;61;20357;-67
2022/10/22 09:35:20;0.00;0.00;0.62;0.00;0.00;0.62;2.57;1.50;;;26.70;31.20;;;;;;2502667;53;20741;-69
2022/10/22 09:38:07;0.00;0.00;0.62;0.00;0.00;0.62;1.97;1.40;;;26.80;31.20;;;;;;2264511;61;20361;-68
2022/10/22 09:40:55;0.00;0.00;0.62;0.00;0.00;0.62;1.97;1.50;;;26.80;31.10;;;;;;2265631;61;20740;-68
2022/10/22 09:43:39;0.00;0.00;0.62;0.00;0.00;0.62;2.60;1.77;;;26.80;31.00;;;;;;2265208;61;20362;-69
2022/10/22 09:46:28;0.00;0.00;0.62;0.00;0.00;0.62;2.17;1.60;;;26.90;31.10;;;;;;2265096;61;20380;-68
2022/10/22 09:49:16;0.00;0.00;0.62;0.00;0.00;0.62;1.70;1.27;;;26.90;31.70;;;;;;2265493;61;20404;-68
2022/10/22 09:52:33;0.00;0.00;0.62;0.00;0.00;0.62;2.50;1.60;;;26.90;31.00;;;;;;2265242;61;20398;-68
2022/10/22 09:55:18;0.00;0.00;0.62;0.00;0.00;0.62;1.80;1.50;;;26.90;30.90;;;;;;2265456;61;20623;-68
2022/10/22 09:58:03;0.00;0.00;0.62;0.00;0.00;0.62;1.67;1.30;;;27.00;31.00;;;;;;2265405;61;20848;-66
2022/10/22 10:00:53;0.00;0.00;0.62;0.00;0.00;0.62;1.80;1.27;;;27.00;30.90;;;;;;2264988;61;20380;-67
2022/10/22 10:03:38;0.00;0.00;0.62;0.00;0.00;0.62;2.63;1.20;;;27.00;30.90;;;;;;2265069;61;20438;-66
2022/10/22 10:06:23;0.00;0.00;0.62;0.00;0.00;0.62;1.83;1.10;;;27.00;30.90;;;;;;2265379;61;20419;-66
2022/10/22 10:09:15;0.00;0.00;0.62;0.00;0.00;0.62;1.50;1.00;;;27.00;30.80;;;;;;2264978;61;20740;-67
2022/10/22 10:12:14;0.00;0.00;0.62;0.00;0.00;0.62;1.80;1.30;;;27.10;30.90;;;;;;2265411;61;20361;-67
2022/10/22 10:15:10;0.00;0.00;0.62;0.00;0.00;0.62;1.70;1.10;;;27.10;30.90;;;;;;2502005;53;20377;-66
2022/10/22 10:18:11;0.00;0.00;0.62;0.00;0.00;0.62;2.07;1.17;;;27.20;31.00;;;;;;2265381;61;20384;-66
2022/10/22 10:21:08;0.00;0.00;0.62;0.00;0.00;0.62;1.70;1.03;;;27.20;30.90;;;;;;2265461;61;20364;-66
2022/10/22 10:24:01;0.00;0.00;0.62;0.00;0.00;0.62;1.40;0.90;;;27.20;30.90;;;;;;2264541;61;20364;-68
2022/10/22 10:26:54;0.00;0.00;0.62;0.00;0.00;0.62;1.70;1.20;;;27.20;30.90;;;;;;2265351;61;20871;-66
2022/10/22 10:29:48;0.00;0.00;0.62;0.00;0.00;0.62;1.60;1.30;;;27.20;30.90;;;;;;2265095;61;20368;-67
2022/10/22 10:33:01;0.00;0.00;0.62;0.00;0.00;0.62;1.70;1.20;;;27.30;31.00;;;;;;2265205;61;20391;-68
2022/10/22 10:35:57;0.00;0.00;0.62;0.00;0.00;0.62;1.80;1.20;;;27.30;30.90;;;;;;2265498;61;20408;-67
2022/10/22 10:38:56;0.00;0.00;0.62;0.00;0.00;0.62;1.50;1.10;;;27.40;31.00;;;;;;2264653;61;20771;-67
2022/10/22 10:41:54;0.00;0.00;0.62;0.00;0.00;0.62;1.93;1.27;;;27.40;30.90;;;;;;2265345;61;20376;-66
2022/10/22 10:44:53;0.00;0.00;0.62;0.00;0.00;0.62;1.60;1.07;;;27.40;31.50;;;;;;2264643;61;20389;-66
2022/10/22 10:48:11;0.00;0.00;0.62;0.00;0.00;0.62;1.97;1.70;;;27.50;30.80;;;;;;2265328;61;20408;-67
2022/10/22 10:51:07;0.00;0.00;0.62;0.00;0.00;0.62;1.80;1.10;;;27.50;30.70;;;;;;2266122;61;20376;-67
2022/10/22 10:54:06;0.00;0.00;0.62;0.00;0.00;0.62;1.73;1.17;;;27.50;30.60;;;;;;2265388;61;20736;-66
2022/10/22 10:56:57;0.00;0.00;0.62;0.00;0.00;0.62;2.00;1.20;;;27.60;30.60;;;;;;2266182;61;20404;-68
2022/10/22 10:59:59;0.00;0.00;0.62;0.00;0.00;0.62;2.07;1.30;;;27.60;30.50;;;;;;2265237;61;20357;-66
2022/10/22 11:03:22;0.00;0.00;0.62;0.00;0.00;0.62;2.20;1.50;;;27.60;30.50;;;;;;2265849;61;20356;-66